Mundo Novo, Brazil
Current Conditions -  °F | °C
As of 9:00 PM on Wednesday 17 Dec 2014 (Local Time) from SBCA Reporting Station
Broken Clouds Broken Clouds  
Wind Chill: 72°   Ceiling: 10000
Heat Index: 72°   Visibility: 6mi
Dew Point: 61°   Wind: 18mph
Humidity: 69%   Direction: 360°N
Pressure: 29.97"   Gusts: NA
Location:  23.94°S, 54.27°W
Report Text: SBCA 180000Z 36016KT 9999 SCT040 BKN100 22/16 Q1015
Loading
Personal Weather Stations






























Interactive Weather Map New forecast layout! Learn more

10-Day Weather Forecast

Advertisements
Track Severe Weather on mobile